Time;durP1;ratioP1;P1;durP2;ratioP2;P2;SDS_P1;SDS_P2;PMS_P1;PMS_P2;Temp;Humidity;BMP_temperature;BMP_pressure;BME280_temperature;BME280_humidity;BME280_pressure;Samples;Min_cycle;Max_cycle;Signal;HPM_P1;HPM_P2
2022/12/21 00:01:12;;;;;;;25.73;10.07;;;2.80;99.90;;;;;;5031020;28;20091;-44
2022/12/21 00:03:38;;;;;;;18.30;9.25;;;2.90;99.90;;;;;;5030853;28;20013;-52
2022/12/21 00:06:04;;;;;;;18.42;7.80;;;3.00;99.90;;;;;;5031282;28;20030;-49
2022/12/21 00:08:30;;;;;;;21.83;7.70;;;3.00;99.90;;;;;;5030607;28;20441;-49
2022/12/21 00:11:00;;;;;;;20.63;8.18;;;2.90;99.90;;;;;;5062806;28;20032;-44
2022/12/21 00:13:26;;;;;;;15.50;8.05;;;2.90;99.90;;;;;;5030783;28;20030;-43
2022/12/21 00:15:59;;;;;;;20.00;7.18;;;2.90;99.90;;;;;;5030888;28;20029;-47
2022/12/21 00:18:25;;;;;;;21.60;6.43;;;3.00;99.90;;;;;;5030814;28;20038;-44
2022/12/21 00:21:03;;;;;;;16.38;6.20;;;3.00;99.90;;;;;;5030969;28;20032;-51
2022/12/21 00:23:29;;;;;;;19.17;5.70;;;3.00;99.90;;;;;;5030759;28;20026;-45
2022/12/21 00:25:55;;;;;;;17.33;5.60;;;3.00;99.90;;;;;;5030862;28;20017;-43
2022/12/21 00:28:21;;;;;;;13.98;6.68;;;2.90;99.90;;;;;;5030629;28;20072;-44
2022/12/21 00:30:47;;;;;;;16.92;5.43;;;2.90;99.90;;;;;;5030419;28;20017;-41
2022/12/21 00:33:13;;;;;;;17.00;4.90;;;2.90;99.90;;;;;;5030772;28;20244;-43
2022/12/21 00:35:38;;;;;;;14.68;4.38;;;2.90;99.90;;;;;;5030527;28;20018;-46
2022/12/21 00:38:04;;;;;;;14.77;4.50;;;2.90;99.90;;;;;;5030541;28;20025;-45
2022/12/21 00:40:29;;;;;;;19.27;4.47;;;2.80;99.90;;;;;;5030381;28;20038;-48
2022/12/21 00:42:55;;;;;;;19.33;4.40;;;2.80;99.90;;;;;;5033967;28;20032;-45
2022/12/21 00:45:21;;;;;;;9.48;3.63;;;2.80;99.90;;;;;;5034661;28;20136;-42
2022/12/21 00:47:47;;;;;;;20.40;4.28;;;2.80;99.90;;;;;;5034424;28;20013;-41
2022/12/21 00:50:13;;;;;;;9.57;3.80;;;2.80;99.90;;;;;;5034479;28;20118;-43
2022/12/21 00:52:38;;;;;;;14.73;4.80;;;2.90;99.90;;;;;;5034605;28;20105;-39
2022/12/21 00:55:04;;;;;;;14.43;5.43;;;2.90;99.90;;;;;;5034393;28;20021;-49
2022/12/21 00:57:30;;;;;;;19.85;5.72;;;2.90;99.90;;;;;;5034151;28;20028;-47
2022/12/21 00:59:55;;;;;;;19.58;5.63;;;3.00;99.90;;;;;;5033920;28;20093;-48
2022/12/21 01:02:21;;;;;;;17.23;5.78;;;2.90;99.90;;;;;;5034048;28;20032;-44
2022/12/21 01:04:47;;;;;;;20.10;5.75;;;2.90;99.90;;;;;;5034144;28;20033;-49
2022/12/21 01:07:12;;;;;;;14.05;5.78;;;2.80;99.90;;;;;;5034223;28;20113;-49
2022/12/21 01:09:38;;;;;;;17.63;6.63;;;2.80;99.90;;;;;;5034247;28;20059;-47
2022/12/21 01:12:03;;;;;;;36.65;6.63;;;2.70;99.90;;;;;;5034042;28;20492;-54
2022/12/21 01:14:29;;;;;;;15.80;5.95;;;2.80;99.90;;;;;;5034038;28;20511;-48
2022/12/21 01:16:55;;;;;;;13.52;6.65;;;2.80;99.90;;;;;;5033860;28;20119;-45
2022/12/21 01:19:21;;;;;;;16.60;6.78;;;2.90;99.90;;;;;;5033871;28;20033;-46
2022/12/21 01:21:46;;;;;;;18.05;7.10;;;2.90;99.90;;;;;;5033817;28;20087;-42
2022/12/21 01:24:12;;;;;;;14.73;6.75;;;2.90;99.90;;;;;;5033820;28;20033;-53
2022/12/21 01:26:38;;;;;;;13.57;6.60;;;2.80;99.90;;;;;;5032266;28;20427;-43
2022/12/21 01:29:04;;;;;;;18.08;6.47;;;2.70;99.90;;;;;;5033715;28;20033;-53
2022/12/21 01:31:30;;;;;;;13.07;6.25;;;2.70;99.90;;;;;;5033797;28;20025;-44
2022/12/21 01:33:55;;;;;;;15.07;6.88;;;2.60;99.90;;;;;;5033625;28;20018;-52
2022/12/21 01:36:23;;;;;;;13.85;6.55;;;2.60;99.90;;;;;;5033701;28;20365;-42
2022/12/21 01:38:49;;;;;;;14.77;6.10;;;2.70;99.90;;;;;;5033497;28;20041;-46
2022/12/21 01:41:23;;;;;;;13.52;6.18;;;2.70;99.90;;;;;;5033343;28;20497;-45
2022/12/21 01:43:56;;;;;;;16.48;7.20;;;2.80;99.90;;;;;;5033560;28;20021;-43
2022/12/21 01:46:34;;;;;;;12.70;5.55;;;2.90;99.90;;;;;;5033384;28;20018;-54
2022/12/21 01:49:08;;;;;;;15.45;6.30;;;3.00;99.90;;;;;;5033548;28;20135;-44
2022/12/21 01:51:36;;;;;;;16.23;7.43;;;3.20;99.90;;;;;;5033446;28;20068;-53
2022/12/21 01:54:12;;;;;;;21.35;6.75;;;3.20;99.90;;;;;;5032425;28;20033;-52
2022/12/21 01:56:39;;;;;;;21.05;6.97;;;3.30;99.90;;;;;;5033260;28;20017;-46
2022/12/21 01:59:23;;;;;;;18.55;6.85;;;3.40;99.90;;;;;;5033350;28;20070;-51
2022/12/21 02:01:49;;;;;;;17.50;6.40;;;3.50;99.90;;;;;;5033254;28;20108;-50
2022/12/21 02:04:14;;;;;;;18.08;6.97;;;3.60;99.90;;;;;;5033072;28;20136;-55
2022/12/21 02:06:45;;;;;;;19.65;6.60;;;3.70;99.90;;;;;;5033078;28;20037;-57
2022/12/21 02:09:13;;;;;;;19.65;6.68;;;3.70;99.90;;;;;;5033151;28;20084;-49
2022/12/21 02:11:39;;;;;;;23.52;6.60;;;3.80;99.90;;;;;;5032910;28;20057;-42
2022/12/21 02:14:13;;;;;;;14.90;5.80;;;3.80;99.90;;;;;;5032940;28;20024;-47
2022/12/21 02:17:07;;;;;;;17.17;5.97;;;3.90;99.90;;;;;;5032842;28;20026;-44
2022/12/21 02:19:50;;;;;;;12.63;4.80;;;3.80;99.90;;;;;;5032682;28;20091;-53
2022/12/21 02:22:52;;;;;;;15.98;5.68;;;3.80;99.90;;;;;;5031378;28;20026;-43
2022/12/21 02:25:42;;;;;;;17.45;5.35;;;3.80;99.90;;;;;;5032524;28;20465;-44
2022/12/21 02:28:20;;;;;;;24.13;5.07;;;3.80;99.90;;;;;;5032383;28;20033;-48
2022/12/21 02:31:16;;;;;;;21.38;4.70;;;3.90;99.90;;;;;;5032641;28;20017;-40
2022/12/21 02:34:02;;;;;;;12.15;4.38;;;4.10;99.90;;;;;;5032566;28;20061;-52
2022/12/21 02:36:31;;;;;;;16.27;4.82;;;4.30;99.90;;;;;;5032579;28;20465;-46
2022/12/21 02:39:14;;;;;;;16.52;4.80;;;4.30;99.90;;;;;;5032759;28;20083;-42
2022/12/21 02:41:40;;;;;;;11.60;3.90;;;4.40;99.90;;;;;;5025529;28;20021;-46
2022/12/21 02:44:40;;;;;;;17.88;3.97;;;4.50;99.90;;;;;;5032165;28;20558;-48
2022/12/21 02:47:22;;;;;;;;;;;4.60;99.90;;;;;;5032738;28;20029;-44
2022/12/21 02:49:53;;;;;;;14.45;3.70;;;4.70;99.90;;;;;;5032073;28;19911;-53
2022/12/21 02:52:42;;;;;;;12.48;3.45;;;4.80;99.90;;;;;;5032265;28;20463;-46
2022/12/21 02:55:11;;;;;;;11.13;3.28;;;4.80;99.90;;;;;;5032407;28;20552;-54
2022/12/21 02:57:40;;;;;;;16.73;3.70;;;4.90;99.90;;;;;;5031905;28;20082;-47
2022/12/21 03:00:11;;;;;;;17.73;3.40;;;5.00;99.90;;;;;;5031950;28;20034;-41
2022/12/21 03:06:30;;;;;;;18.17;3.45;;;5.20;99.90;;;;;;5031987;28;20032;-42
2022/12/21 03:09:04;;;;;;;25.27;3.95;;;5.30;99.90;;;;;;5031671;28;20099;-50
2022/12/21 03:11:45;;;;;;;20.10;4.30;;;5.30;99.90;;;;;;5031860;28;20028;-46
2022/12/21 03:14:32;;;;;;;16.85;3.25;;;5.40;99.90;;;;;;5031848;28;20041;-46
2022/12/21 03:17:07;;;;;;;23.30;4.60;;;5.30;99.90;;;;;;5031796;28;20095;-47
2022/12/21 03:19:41;;;;;;;23.40;3.67;;;5.40;99.90;;;;;;5031588;28;20041;-52
2022/12/21 03:22:19;;;;;;;18.13;3.13;;;5.30;99.90;;;;;;5031759;28;20021;-54
2022/12/21 03:25:12;;;;;;;14.25;3.33;;;5.30;99.90;;;;;;5031798;28;20033;-52
2022/12/21 03:27:43;;;;;;;14.30;3.50;;;5.30;99.90;;;;;;5030149;28;20476;-49
2022/12/21 03:30:14;;;;;;;17.80;3.13;;;5.30;99.90;;;;;;5030119;28;20033;-51
2022/12/21 03:32:51;;;;;;;21.25;3.92;;;5.40;99.90;;;;;;5031713;28;20053;-45
2022/12/21 03:35:36;;;;;;;17.17;3.30;;;5.50;99.90;;;;;;5046223;28;20033;-50
2022/12/21 03:38:07;;;;;;;18.20;3.60;;;5.60;99.90;;;;;;5031509;28;20028;-43
2022/12/21 03:40:36;;;;;;;19.67;3.90;;;5.70;99.90;;;;;;5031169;28;20043;-56
2022/12/21 03:43:26;;;;;;;29.70;4.10;;;5.80;99.90;;;;;;5031536;28;20021;-49
2022/12/21 03:45:57;;;;;;;27.88;4.32;;;5.90;99.90;;;;;;5031038;28;20029;-51
2022/12/21 03:48:54;;;;;;;12.90;2.95;;;6.00;99.90;;;;;;5031208;28;20086;-47
2022/12/21 03:51:33;;;;;;;17.42;3.40;;;6.00;99.90;;;;;;5031406;28;20028;-47
2022/12/21 03:54:37;;;;;;;17.85;3.35;;;6.00;99.90;;;;;;5031182;28;20020;-53
2022/12/21 03:57:04;;;;;;;14.45;3.10;;;6.00;99.90;;;;;;5029742;28;20484;-41
2022/12/21 03:59:30;;;;;;;12.38;3.78;;;6.00;99.90;;;;;;5030865;28;20103;-42
2022/12/21 04:02:05;;;;;;;15.52;2.80;;;6.00;99.90;;;;;;5063121;28;20022;-47
2022/12/21 04:04:55;;;;;;;16.05;2.55;;;5.90;99.90;;;;;;5030975;28;20112;-41
2022/12/21 04:07:25;;;;;;;18.38;3.60;;;5.90;99.90;;;;;;5030584;28;20061;-46
2022/12/21 04:10:04;;;;;;;24.13;4.00;;;5.90;99.90;;;;;;5017093;28;20028;-51
2022/12/21 04:12:41;;;;;;;19.35;2.95;;;5.90;99.90;;;;;;5031073;28;20034;-42
2022/12/21 04:15:14;;;;;;;15.95;3.13;;;5.90;99.90;;;;;;5030888;28;20082;-43
2022/12/21 04:17:42;;;;;;;21.13;3.00;;;5.90;99.90;;;;;;5030407;28;20036;-48
2022/12/21 04:20:14;;;;;;;18.83;3.30;;;5.90;99.90;;;;;;5030690;28;20117;-42
2022/12/21 04:28:29;;;;;;;11.93;2.88;;;5.80;99.90;;;;;;5030454;28;20091;-41
2022/12/21 04:30:55;;;;;;;15.45;2.97;;;5.70;99.90;;;;;;5030733;28;20034;-56
2022/12/21 04:33:23;;;;;;;12.10;3.28;;;5.60;99.90;;;;;;5030557;28;20029;-45
2022/12/21 04:38:39;;;;;;;13.38;2.72;;;5.50;99.90;;;;;;5030552;28;20025;-45
2022/12/21 04:41:06;;;;;;;13.98;2.63;;;5.60;99.90;;;;;;5030699;28;20029;-48
2022/12/21 04:43:34;;;;;;;19.20;3.22;;;5.70;99.90;;;;;;5030493;28;20026;-45
2022/12/21 04:46:02;;;;;;;14.52;2.47;;;5.80;99.90;;;;;;5030699;28;20047;-49
2022/12/21 04:48:28;;;;;;;13.40;2.85;;;5.80;99.90;;;;;;5030546;28;20021;-41
2022/12/21 04:50:54;;;;;;;15.65;2.88;;;5.80;99.90;;;;;;5062338;28;20071;-53
2022/12/21 04:53:19;;;;;;;15.38;3.30;;;5.80;99.90;;;;;;5062881;28;20065;-50
2022/12/21 04:55:45;;;;;;;11.95;2.95;;;5.80;99.90;;;;;;5030704;28;20044;-46
2022/12/21 04:58:11;;;;;;;10.85;2.60;;;5.80;99.90;;;;;;5030208;28;20445;-52
2022/12/21 05:00:37;;;;;;;15.30;2.85;;;5.90;99.90;;;;;;5030110;28;20417;-52
2022/12/21 05:03:03;;;;;;;18.45;3.47;;;5.80;99.90;;;;;;5030541;28;20026;-49
2022/12/21 05:05:29;;;;;;;17.75;3.00;;;5.80;99.90;;;;;;5030284;28;20057;-52
2022/12/21 05:07:55;;;;;;;15.45;2.45;;;5.70;99.90;;;;;;5030270;28;20042;-54
2022/12/21 05:10:21;;;;;;;11.63;2.72;;;5.70;99.90;;;;;;5030422;28;20132;-45
2022/12/21 05:12:46;;;;;;;14.75;3.28;;;5.60;99.90;;;;;;5030182;28;20132;-43
2022/12/21 05:15:13;;;;;;;11.63;3.00;;;5.60;99.90;;;;;;5030436;28;20056;-44
2022/12/21 05:17:42;;;;;;;13.48;3.28;;;5.70;99.90;;;;;;5029924;28;20056;-43
2022/12/21 05:20:08;;;;;;;20.65;2.97;;;5.70;99.90;;;;;;5030052;28;20029;-49
2022/12/21 05:22:33;;;;;;;11.60;2.17;;;5.80;99.90;;;;;;5025961;28;20091;-52
2022/12/21 05:24:59;;;;;;;10.45;2.33;;;5.90;99.90;;;;;;5016461;28;20512;-60
2022/12/21 05:27:25;;;;;;;21.88;3.58;;;6.00;99.90;;;;;;5028392;28;20037;-56
2022/12/21 05:29:50;;;;;;;13.90;2.40;;;6.20;99.90;;;;;;5029360;28;20021;-45
2022/12/21 05:32:16;;;;;;;18.00;2.58;;;6.40;99.90;;;;;;5024851;28;20458;-51
2022/12/21 05:34:41;;;;;;;19.27;2.42;;;6.50;99.90;;;;;;5032023;28;20032;-51
2022/12/21 05:37:07;;;;;;;17.42;2.67;;;6.60;99.90;;;;;;5019276;28;20109;-51
2022/12/21 05:39:34;;;;;;;19.48;2.55;;;6.90;99.90;;;;;;5027702;28;20037;-46
2022/12/21 05:42:03;;;;;;;21.17;2.33;;;7.10;99.90;;;;;;5022581;28;20034;-42
2022/12/21 05:44:29;;;;;;;19.40;3.05;;;7.10;99.90;;;;;;5026502;28;20053;-42
2022/12/21 05:46:55;;;;;;;13.10;2.17;;;7.10;99.90;;;;;;5056377;28;20383;-44
2022/12/21 05:49:20;;;;;;;17.00;2.67;;;7.10;99.90;;;;;;5026486;28;20026;-49
2022/12/21 05:51:47;;;;;;;20.13;2.58;;;7.10;99.90;;;;;;5033466;28;20108;-41
2022/12/21 05:54:14;;;;;;;15.38;2.28;;;7.10;99.90;;;;;;5033235;28;20108;-48
2022/12/21 05:56:40;;;;;;;13.10;2.67;;;7.00;99.90;;;;;;5032128;28;20028;-41
2022/12/21 05:59:05;;;;;;;15.75;2.55;;;7.00;99.90;;;;;;5032858;28;20041;-47
2022/12/21 06:01:31;;;;;;;21.42;2.30;;;7.10;99.90;;;;;;5032068;28;20030;-50
2022/12/21 06:03:57;;;;;;;17.63;2.42;;;7.10;99.90;;;;;;5018371;28;20469;-41
2022/12/21 06:06:23;;;;;;;21.40;2.75;;;7.20;99.90;;;;;;5014186;28;20041;-40
2022/12/21 06:08:48;;;;;;;14.75;2.00;;;7.20;99.90;;;;;;5013068;28;20050;-40
2022/12/21 06:11:17;;;;;;;14.32;2.25;;;7.20;99.90;;;;;;5013506;28;20046;-41
2022/12/21 06:13:43;;;;;;;18.63;2.57;;;7.20;99.90;;;;;;5014104;28;20030;-43
2022/12/21 06:16:13;;;;;;;17.17;2.70;;;7.10;99.90;;;;;;5014419;28;20040;-41
2022/12/21 06:18:39;;;;;;;;;;;7.10;99.90;;;;;;5012644;28;20026;-41
2022/12/21 06:21:05;;;;;;;13.60;2.33;;;7.20;99.90;;;;;;5022722;28;19920;-43
2022/12/21 06:23:31;;;;;;;15.90;2.50;;;7.20;99.90;;;;;;5024984;28;20030;-41
2022/12/21 06:25:58;;;;;;;19.08;2.42;;;7.30;99.90;;;;;;5026861;28;20680;-41
2022/12/21 06:28:25;;;;;;;16.85;2.25;;;7.40;99.90;;;;;;5023351;28;20083;-41
2022/12/21 06:30:55;;;;;;;16.80;2.53;;;7.50;99.90;;;;;;5026914;28;20021;-43
2022/12/21 06:33:22;;;;;;;18.70;3.20;;;7.60;99.90;;;;;;5025165;28;20018;-41
2022/12/21 06:35:55;;;;;;;21.15;2.50;;;7.60;99.90;;;;;;5028790;28;20052;-41
2022/12/21 06:38:20;;;;;;;15.85;2.50;;;7.70;99.90;;;;;;5026194;28;20033;-41
2022/12/21 06:40:56;;;;;;;16.92;2.67;;;7.80;99.90;;;;;;5025937;28;20447;-41
2022/12/21 06:43:23;;;;;;;18.52;3.42;;;7.80;99.90;;;;;;5026674;28;20500;-42
2022/12/21 06:46:00;;;;;;;16.88;2.60;;;7.80;99.90;;;;;;5027286;28;20382;-43
2022/12/21 06:48:27;;;;;;;15.45;2.60;;;7.90;99.90;;;;;;5027258;28;20021;-46
2022/12/21 06:50:58;;;;;;;15.27;2.85;;;7.90;99.90;;;;;;5030462;28;20033;-44
2022/12/21 06:53:26;;;;;;;20.77;2.90;;;7.90;99.90;;;;;;5030945;28;20494;-52
2022/12/21 06:56:03;;;;;;;23.20;3.15;;;7.90;99.90;;;;;;5031974;28;20029;-54
2022/12/21 06:58:29;;;;;;;13.48;2.20;;;7.90;99.90;;;;;;5032391;28;20033;-50
2022/12/21 07:00:55;;;;;;;14.68;3.05;;;7.90;99.90;;;;;;5032129;28;20550;-49
2022/12/21 07:03:21;;;;;;;18.83;2.50;;;8.00;99.90;;;;;;5032271;28;20032;-47
2022/12/21 07:05:49;;;;;;;21.30;2.80;;;8.00;99.90;;;;;;5030717;28;20392;-45
2022/12/21 07:08:15;;;;;;;19.10;2.45;;;8.00;99.90;;;;;;5032015;28;20132;-51
2022/12/21 07:10:41;;;;;;;15.82;2.55;;;8.00;99.90;;;;;;5031797;28;20055;-48
2022/12/21 07:13:06;;;;;;;13.80;2.42;;;8.10;99.90;;;;;;5032014;28;20025;-52
2022/12/21 07:15:33;;;;;;;19.92;3.28;;;8.20;99.90;;;;;;5031781;28;20385;-44
2022/12/21 07:17:58;;;;;;;12.80;2.17;;;8.20;99.90;;;;;;5031850;28;20053;-47
2022/12/21 07:20:24;;;;;;;19.35;2.55;;;8.20;99.90;;;;;;5031707;28;20080;-49
2022/12/21 07:22:50;;;;;;;24.23;3.67;;;8.20;99.90;;;;;;5031592;28;20029;-52
2022/12/21 07:25:16;;;;;;;21.88;3.00;;;8.30;99.90;;;;;;5031713;28;20018;-46
2022/12/21 07:27:41;;;;;;;12.73;2.25;;;8.30;99.90;;;;;;5031445;28;20439;-45
2022/12/21 07:30:08;;;;;;;16.65;2.53;;;8.30;99.90;;;;;;5031583;28;20052;-44
2022/12/21 07:32:34;;;;;;;16.42;2.88;;;8.40;99.90;;;;;;5046860;28;20030;-54
2022/12/21 07:34:59;;;;;;;21.40;2.53;;;8.50;99.90;;;;;;5031290;28;20086;-46
2022/12/21 07:37:25;;;;;;;26.52;3.20;;;8.60;99.90;;;;;;5031398;28;20070;-48
2022/12/21 07:39:50;;;;;;;13.80;2.53;;;8.60;99.90;;;;;;5031163;28;20034;-46
2022/12/21 07:42:16;;;;;;;23.08;3.35;;;8.60;99.90;;;;;;5031523;28;20036;-47
2022/12/21 07:44:42;;;;;;;14.88;2.58;;;8.70;99.90;;;;;;5031362;28;20082;-46
2022/12/21 07:47:08;;;;;;;17.85;3.13;;;8.70;99.90;;;;;;5030825;28;20057;-44
2022/12/21 07:49:34;;;;;;;16.95;2.90;;;8.80;99.90;;;;;;5027288;28;20447;-49
2022/12/21 07:52:00;;;;;;;22.52;2.53;;;8.80;99.90;;;;;;5029856;28;20030;-46
2022/12/21 07:54:25;;;;;;;13.38;2.88;;;8.80;99.90;;;;;;5021526;28;20104;-50
2022/12/21 07:56:51;;;;;;;14.35;2.67;;;8.80;99.90;;;;;;5015679;28;20152;-45
2022/12/21 07:59:17;;;;;;;12.57;2.95;;;8.80;99.90;;;;;;5017391;28;20034;-48
2022/12/21 08:01:43;;;;;;;10.85;2.20;;;8.80;99.90;;;;;;5021515;28;20033;-50
2022/12/21 08:04:09;;;;;;;23.13;3.92;;;8.80;99.90;;;;;;5037162;28;20084;-52
2022/12/21 08:06:34;;;;;;;18.48;3.47;;;8.80;99.90;;;;;;5026440;28;20417;-49
2022/12/21 08:09:00;;;;;;;19.25;2.78;;;8.90;99.90;;;;;;5027852;28;20098;-50
2022/12/21 08:11:28;;;;;;;12.57;2.20;;;8.80;99.90;;;;;;5018460;28;20381;-43
2022/12/21 08:13:56;;;;;;;15.88;2.33;;;8.90;99.90;;;;;;5027073;28;21449;-50
2022/12/21 08:16:22;;;;;;;15.10;3.03;;;9.00;99.90;;;;;;5029409;28;20040;-48
2022/12/21 08:18:48;;;;;;;17.90;2.30;;;9.00;99.90;;;;;;5029522;28;20025;-46
2022/12/21 08:21:14;;;;;;;13.07;2.30;;;9.10;99.90;;;;;;5021255;28;20392;-42
2022/12/21 08:23:40;;;;;;;15.00;2.42;;;9.10;99.90;;;;;;5017107;28;20025;-44
2022/12/21 08:26:10;;;;;;;14.15;3.13;;;9.20;99.90;;;;;;5017093;28;20112;-50
2022/12/21 08:28:35;;;;;;;12.90;2.33;;;9.20;99.90;;;;;;5017155;28;20106;-52
2022/12/21 08:31:18;;;;;;;13.88;1.83;;;9.30;99.90;;;;;;5021450;28;20108;-50
2022/12/21 08:33:45;;;;;;;9.63;2.03;;;9.30;99.90;;;;;;5016891;28;20505;-48
2022/12/21 08:36:13;;;;;;;13.70;2.17;;;9.40;99.90;;;;;;5025000;28;20041;-45
2022/12/21 08:38:39;;;;;;;17.13;2.15;;;9.50;99.90;;;;;;5020220;28;20057;-48
2022/12/21 08:41:05;;;;;;;8.80;1.77;;;9.60;99.90;;;;;;5027113;28;20080;-42
2022/12/21 08:43:34;;;;;;;12.13;2.80;;;9.60;99.90;;;;;;5028751;28;20076;-46
2022/12/21 08:46:03;;;;;;;20.57;3.00;;;9.60;99.90;;;;;;5030381;28;20061;-47
2022/12/21 08:48:29;;;;;;;11.47;2.20;;;9.60;99.90;;;;;;5028489;28;20025;-43
2022/12/21 08:50:55;;;;;;;20.40;3.05;;;9.60;99.90;;;;;;5030081;28;20772;-53
2022/12/21 08:53:20;;;;;;;16.13;2.70;;;9.70;99.90;;;;;;5030488;28;20120;-43
2022/12/21 08:55:48;;;;;;;15.32;2.65;;;9.70;99.90;;;;;;5030469;28;20029;-48
2022/12/21 08:58:14;;;;;;;23.63;3.25;;;9.60;99.90;;;;;;5030455;28;20507;-53
2022/12/21 09:00:42;;;;;;;13.38;2.35;;;9.70;99.90;;;;;;5030350;28;20042;-44
2022/12/21 09:03:08;;;;;;;12.68;3.47;;;9.70;99.90;;;;;;5026108;28;20036;-41
2022/12/21 09:05:34;;;;;;;10.57;2.33;;;9.70;99.90;;;;;;5031241;28;20037;-54
2022/12/21 09:08:00;;;;;;;11.15;2.78;;;9.70;99.90;;;;;;5031342;28;20083;-44
2022/12/21 09:10:26;;;;;;;9.48;2.13;;;9.80;99.90;;;;;;5028547;28;20400;-43
2022/12/21 09:12:54;;;;;;;22.48;2.95;;;9.80;99.90;;;;;;5031382;28;20026;-45
2022/12/21 09:15:20;;;;;;;15.50;2.40;;;9.80;99.90;;;;;;5028238;28;20055;-48
2022/12/21 09:17:47;;;;;;;15.45;2.30;;;9.80;99.90;;;;;;5029339;28;20160;-44
2022/12/21 09:20:13;;;;;;;12.88;2.28;;;9.80;99.90;;;;;;5033430;28;20120;-44
2022/12/21 09:22:39;;;;;;;19.65;2.78;;;9.80;99.90;;;;;;5027375;28;20021;-43
2022/12/21 09:25:05;;;;;;;15.60;2.10;;;9.80;99.90;;;;;;5031343;28;20087;-47
2022/12/21 09:27:31;;;;;;;15.90;2.75;;;9.80;99.90;;;;;;5033009;28;20025;-45
2022/12/21 09:29:56;;;;;;;7.63;2.13;;;9.80;99.90;;;;;;5031625;28;20014;-45
2022/12/21 09:32:22;;;;;;;13.18;2.42;;;9.80;99.90;;;;;;5032728;28;20453;-57
2022/12/21 09:34:48;;;;;;;17.02;2.95;;;9.90;99.90;;;;;;5031592;28;20104;-52
2022/12/21 09:37:13;;;;;;;16.55;2.20;;;9.90;99.90;;;;;;5032658;28;20033;-52
2022/12/21 09:39:39;;;;;;;9.52;2.10;;;9.90;99.90;;;;;;5032413;28;20060;-54
2022/12/21 09:42:22;;;;;;;12.45;2.03;;;9.90;99.90;;;;;;5019570;28;20393;-47
2022/12/21 09:44:54;;;;;;;15.02;2.10;;;9.90;99.90;;;;;;5031478;28;20464;-54
2022/12/21 09:47:29;;;;;;;8.30;1.73;;;9.90;99.90;;;;;;5018486;28;20030;-45
2022/12/21 09:49:59;;;;;;;15.10;2.00;;;9.90;99.90;;;;;;5027577;28;20481;-45
2022/12/21 09:52:40;;;;;;;10.38;2.17;;;9.90;99.90;;;;;;5033334;28;20065;-53
2022/12/21 09:55:15;;;;;;;8.50;1.83;;;9.90;99.90;;;;;;5033289;28;20021;-46
2022/12/21 09:57:43;;;;;;;12.13;2.00;;;9.90;99.90;;;;;;5033298;28;20150;-45
2022/12/21 10:00:17;;;;;;;15.55;2.30;;;9.90;99.90;;;;;;5033294;28;20097;-51
2022/12/21 10:03:05;;;;;;;14.13;1.88;;;9.90;99.90;;;;;;5032761;28;20013;-46
2022/12/21 10:05:49;;;;;;;11.73;2.13;;;9.90;99.90;;;;;;5031403;28;20025;-43
2022/12/21 10:08:32;;;;;;;12.10;2.00;;;9.90;99.90;;;;;;5030904;28;20147;-44
2022/12/21 10:11:49;;;;;;;10.73;1.80;;;9.80;99.90;;;;;;5030819;28;20038;-44
2022/12/21 10:14:45;;;;;;;12.82;1.67;;;9.80;99.90;;;;;;5028985;28;20038;-47
2022/12/21 10:17:38;;;;;;;16.55;2.17;;;9.80;99.90;;;;;;5031661;28;20108;-45
2022/12/21 10:20:25;;;;;;;13.93;2.13;;;9.80;99.90;;;;;;5032738;28;20040;-45
2022/12/21 10:23:01;;;;;;;11.88;2.10;;;9.90;99.90;;;;;;5029911;28;20041;-50
2022/12/21 10:25:57;;;;;;;13.15;2.38;;;10.00;99.90;;;;;;5031662;28;20025;-53
2022/12/21 10:28:37;;;;;;;12.25;2.10;;;10.00;99.90;;;;;;5029554;28;20037;-42
2022/12/21 10:31:08;;;;;;;13.57;1.98;;;10.10;99.90;;;;;;5025971;28;20110;-44
2022/12/21 10:33:41;;;;;;;14.25;2.55;;;10.20;99.90;;;;;;5016142;28;20472;-46
2022/12/21 10:36:15;;;;;;;8.77;1.48;;;10.30;99.90;;;;;;5026967;28;20471;-43
2022/12/21 10:38:41;;;;;;;18.60;2.60;;;10.40;99.90;;;;;;5029469;28;20022;-52
2022/12/21 10:41:19;;;;;;;13.43;2.67;;;10.50;99.90;;;;;;5031598;28;20041;-49
2022/12/21 10:43:48;;;;;;;11.15;2.17;;;10.50;99.90;;;;;;5024097;28;20020;-46
2022/12/21 10:46:16;;;;;;;13.25;2.50;;;10.50;99.90;;;;;;5027042;28;20060;-46
2022/12/21 10:48:43;;;;;;;13.30;2.17;;;10.50;99.90;;;;;;5022022;28;20370;-44
2022/12/21 10:51:32;;;;;;;9.77;2.13;;;10.50;99.90;;;;;;5022636;28;20273;-49
2022/12/21 10:54:00;;;;;;;13.50;2.30;;;10.50;99.90;;;;;;5031505;28;20132;-42
2022/12/21 10:56:28;;;;;;;10.45;2.33;;;10.50;99.90;;;;;;5029712;28;20396;-45
2022/12/21 10:58:55;;;;;;;16.75;3.15;;;10.60;99.90;;;;;;5017899;28;20047;-46
2022/12/21 11:01:25;;;;;;;17.00;2.92;;;10.60;99.90;;;;;;5014581;28;20053;-41
2022/12/21 11:04:10;;;;;;;15.43;2.20;;;10.60;99.90;;;;;;5012456;28;20018;-45
2022/12/21 11:06:36;;;;;;;12.57;2.55;;;10.50;99.90;;;;;;5012727;28;20022;-42
2022/12/21 11:09:04;;;;;;;12.27;2.60;;;10.40;99.90;;;;;;5014367;28;20041;-43
2022/12/21 11:11:36;;;;;;;12.68;2.47;;;10.30;99.90;;;;;;5012785;28;20025;-47
2022/12/21 11:14:23;;;;;;;7.57;2.40;;;10.30;99.90;;;;;;5012508;28;20062;-46
2022/12/21 11:16:49;;;;;;;10.45;1.90;;;10.30;99.90;;;;;;5012390;28;20029;-44
2022/12/21 11:19:22;;;;;;;14.68;2.53;;;10.30;99.90;;;;;;5012334;28;20401;-44
2022/12/21 11:21:54;;;;;;;11.75;2.30;;;10.30;99.90;;;;;;5019144;28;20100;-43
2022/12/21 11:24:28;;;;;;;7.20;1.88;;;10.30;99.90;;;;;;5012312;28;20034;-45
2022/12/21 11:27:01;;;;;;;11.93;2.50;;;10.30;99.90;;;;;;5013258;28;20029;-42
2022/12/21 11:29:31;;;;;;;12.43;2.58;;;10.30;99.90;;;;;;5012346;28;20492;-50
2022/12/21 11:32:04;;;;;;;12.80;2.10;;;10.40;99.90;;;;;;5020882;28;20029;-44
2022/12/21 11:34:40;;;;;;;10.38;2.38;;;10.40;99.90;;;;;;5012182;28;20026;-47
2022/12/21 11:37:45;;;;;;;10.70;1.88;;;10.40;99.90;;;;;;5012092;28;20072;-46
2022/12/21 11:40:11;;;;;;;13.68;2.22;;;10.50;99.90;;;;;;5006955;28;20041;-43
2022/12/21 11:42:50;;;;;;;11.55;1.95;;;10.50;99.90;;;;;;5007667;28;20034;-44
2022/12/21 11:45:19;;;;;;;7.38;1.65;;;10.50;99.90;;;;;;5019268;28;20493;-46
2022/12/21 11:48:16;;;;;;;11.47;1.90;;;10.50;99.90;;;;;;5020762;28;20029;-45
2022/12/21 11:51:02;;;;;;;13.15;1.73;;;10.60;99.90;;;;;;5027051;28;20021;-42
2022/12/21 11:54:05;;;;;;;9.75;1.38;;;10.60;99.90;;;;;;5030742;28;20079;-51
2022/12/21 11:56:40;;;;;;;13.38;1.85;;;10.60;99.90;;;;;;5030671;28;20380;-43
2022/12/21 11:59:15;;;;;;;11.82;2.50;;;10.60;99.90;;;;;;5030593;28;20025;-45
2022/12/21 12:01:46;;;;;;;13.73;1.30;;;10.60;99.90;;;;;;5030261;28;20499;-40
2022/12/21 12:04:20;;;;;;;12.18;1.63;;;10.60;99.90;;;;;;5030379;28;20049;-43
2022/12/21 12:07:21;;;;;;;13.60;2.15;;;10.50;99.90;;;;;;5030356;28;20033;-47
2022/12/21 12:09:55;;;;;;;10.18;1.75;;;10.50;99.90;;;;;;5029759;28;20037;-41
2022/12/21 12:12:40;;;;;;;8.43;1.70;;;10.50;99.90;;;;;;5030475;28;20502;-42
2022/12/21 12:15:29;;;;;;;9.18;2.03;;;10.50;99.90;;;;;;5030604;28;20026;-41
2022/12/21 12:18:16;;;;;;;9.48;1.70;;;10.60;99.90;;;;;;5027064;28;20113;-43
2022/12/21 12:21:08;;;;;;;5.28;1.20;;;10.60;99.90;;;;;;5022010;28;20030;-41
2022/12/21 12:23:52;;;;;;;7.30;1.48;;;10.60;99.90;;;;;;5015552;28;20021;-45
2022/12/21 12:26:28;;;;;;;10.15;1.77;;;10.70;99.90;;;;;;5027915;28;20427;-50
2022/12/21 12:29:05;;;;;;;10.60;2.10;;;10.80;99.90;;;;;;5027521;28;20033;-52
2022/12/21 12:31:39;;;;;;;10.75;2.22;;;10.80;99.90;;;;;;5020505;28;20526;-52
2022/12/21 12:34:12;;;;;;;12.55;1.77;;;10.90;99.90;;;;;;5016749;28;20025;-46
2022/12/21 12:37:12;;;;;;;9.57;1.77;;;11.00;99.90;;;;;;5030155;28;20059;-43
2022/12/21 12:39:37;;;;;;;;;;;11.00;99.90;;;;;;5034733;28;20053;-46
2022/12/21 12:42:12;;;;;;;8.63;1.50;;;10.90;99.90;;;;;;5034163;28;19909;-45
2022/12/21 12:44:49;;;;;;;6.38;0.95;;;10.90;99.90;;;;;;5034361;28;20020;-50
2022/12/21 12:47:33;;;;;;;4.22;1.20;;;11.00;99.90;;;;;;5033975;28;20030;-45
2022/12/21 12:50:13;;;;;;;2.70;1.20;;;11.10;99.90;;;;;;5033566;28;20108;-47
2022/12/21 12:52:48;;;;;;;7.63;1.35;;;11.20;99.90;;;;;;5025517;28;20111;-55
2022/12/21 12:55:20;;;;;;;5.90;1.08;;;11.20;99.90;;;;;;5031724;28;20108;-44
2022/12/21 12:58:04;;;;;;;9.02;0.88;;;11.20;99.90;;;;;;5029613;28;20029;-50
2022/12/21 13:00:39;;;;;;;6.68;1.27;;;11.20;99.90;;;;;;5031845;28;20144;-45
2022/12/21 13:03:07;;;;;;;4.43;1.13;;;11.20;99.90;;;;;;5031090;28;20029;-51
2022/12/21 13:05:54;;;;;;;2.80;0.70;;;11.20;99.90;;;;;;5031147;28;20018;-45
2022/12/21 13:08:46;;;;;;;6.20;1.10;;;11.20;99.90;;;;;;5030031;28;20133;-43
2022/12/21 13:11:21;;;;;;;6.00;1.45;;;11.30;99.90;;;;;;5028526;28;20017;-44
2022/12/21 13:14:00;;;;;;;5.10;0.80;;;11.40;99.90;;;;;;5032310;28;20552;-47
2022/12/21 13:16:59;;;;;;;3.72;0.85;;;11.50;99.90;;;;;;5027213;28;20093;-45
2022/12/21 13:19:28;;;;;;;1.20;0.68;;;11.50;99.90;;;;;;5029852;28;20034;-44
2022/12/21 13:21:59;;;;;;;4.93;0.77;;;11.40;99.90;;;;;;5025279;28;20100;-43